Time;durP1;ratioP1;P1;durP2;ratioP2;P2;SDS_P1;SDS_P2;PMS_P1;PMS_P2;Temp;Humidity;BMP_temperature;BMP_pressure;BME280_temperature;BME280_humidity;BME280_pressure;Samples;Min_cycle;Max_cycle;Signal;HPM_P1;HPM_P2
2021/12/26 00:00:17;;;;;;;3.05;2.40;;;6.40;77.10;;;;;;5174632;27;20470;-47
2021/12/26 00:02:44;;;;;;;3.47;2.67;;;6.40;77.10;;;;;;5155270;27;20050;-52
2021/12/26 00:05:10;;;;;;;3.25;2.88;;;6.40;77.10;;;;;;5155291;27;20031;-51
2021/12/26 00:07:36;;;;;;;5.03;3.10;;;6.40;77.10;;;;;;5154508;27;20545;-50
2021/12/26 00:10:04;;;;;;;3.20;2.70;;;6.30;77.10;;;;;;5155169;27;20043;-49
2021/12/26 00:12:30;;;;;;;3.30;2.83;;;6.40;77.10;;;;;;5155502;27;20050;-52
2021/12/26 00:14:56;;;;;;;5.00;2.55;;;6.30;77.10;;;;;;5136082;27;20099;-51
2021/12/26 00:17:23;;;;;;;3.97;2.75;;;6.30;77.10;;;;;;5154878;27;20054;-49
2021/12/26 00:19:49;;;;;;;2.83;2.38;;;6.30;77.10;;;;;;5154754;27;20050;-47
2021/12/26 00:22:15;;;;;;;4.00;2.35;;;6.30;77.10;;;;;;5155538;27;20037;-49
2021/12/26 00:24:41;;;;;;;3.47;2.50;;;6.30;77.10;;;;;;5154566;27;20095;-51
2021/12/26 00:27:07;;;;;;;3.97;2.63;;;6.30;77.10;;;;;;5154669;27;20046;-51
2021/12/26 00:29:33;;;;;;;3.75;2.70;;;6.30;77.10;;;;;;5154531;27;20074;-51
2021/12/26 00:31:59;;;;;;;4.25;2.40;;;6.30;77.00;;;;;;5154515;27;20046;-47
2021/12/26 00:34:25;;;;;;;3.30;2.50;;;6.30;77.10;;;;;;5155826;27;20106;-51
2021/12/26 00:36:51;;;;;;;3.35;2.67;;;6.30;77.10;;;;;;5154539;27;20054;-47
2021/12/26 00:39:16;;;;;;;3.65;2.88;;;6.30;77.10;;;;;;5153963;27;20399;-48
2021/12/26 00:41:43;;;;;;;3.72;2.70;;;6.30;77.00;;;;;;5154488;27;20034;-51
2021/12/26 00:44:10;;;;;;;3.40;2.42;;;6.30;77.00;;;;;;5155319;27;20030;-52
2021/12/26 00:46:36;;;;;;;4.53;2.72;;;6.30;77.00;;;;;;5154520;27;20461;-50
2021/12/26 00:49:03;;;;;;;4.38;2.50;;;6.30;77.00;;;;;;5154208;27;20034;-49
2021/12/26 00:51:29;;;;;;;4.25;2.72;;;6.30;77.00;;;;;;5154234;27;20045;-50
2021/12/26 00:53:55;;;;;;;3.17;2.72;;;6.30;77.00;;;;;;5155155;27;20035;-50
2021/12/26 00:56:21;;;;;;;3.05;2.40;;;6.30;77.00;;;;;;5153785;27;20043;-49
2021/12/26 00:58:48;;;;;;;2.65;2.38;;;6.30;77.00;;;;;;5154137;27;20085;-49
2021/12/26 01:01:14;;;;;;;3.42;2.85;;;6.30;77.00;;;;;;5154282;27;20039;-49
2021/12/26 01:03:39;;;;;;;3.38;2.50;;;6.30;77.00;;;;;;5154396;27;20043;-52
2021/12/26 01:06:05;;;;;;;4.00;2.42;;;6.30;77.00;;;;;;5155541;27;20136;-49
2021/12/26 01:08:37;;;;;;;3.13;2.55;;;6.30;77.00;;;;;;5153987;27;20049;-50
2021/12/26 01:11:17;;;;;;;3.58;2.60;;;6.20;76.90;;;;;;5153486;27;20525;-51
2021/12/26 01:13:45;;;;;;;4.45;3.00;;;6.30;77.00;;;;;;5153533;27;20104;-50
2021/12/26 01:16:13;;;;;;;3.72;2.60;;;6.20;76.90;;;;;;5154842;27;20054;-51
2021/12/26 01:18:43;;;;;;;3.47;2.67;;;6.20;76.90;;;;;;5154091;27;20031;-48
2021/12/26 01:21:19;;;;;;;3.55;2.60;;;6.20;76.90;;;;;;5154160;27;20047;-51
2021/12/26 01:23:57;;;;;;;2.65;2.20;;;6.20;76.90;;;;;;5153804;27;20079;-52
2021/12/26 01:26:23;;;;;;;4.82;2.38;;;6.20;76.90;;;;;;5158782;27;20043;-52
2021/12/26 01:28:49;;;;;;;3.83;2.53;;;6.20;76.90;;;;;;5158081;27;20042;-49
2021/12/26 01:31:18;;;;;;;3.63;2.40;;;6.20;76.90;;;;;;5139294;27;20063;-48
2021/12/26 01:33:46;;;;;;;3.13;2.42;;;6.20;76.90;;;;;;5157983;27;20045;-50
2021/12/26 01:36:12;;;;;;;2.90;2.40;;;6.20;76.90;;;;;;5159184;27;20038;-51
2021/12/26 01:38:38;;;;;;;3.33;2.40;;;6.20;76.90;;;;;;5139474;27;20046;-49
2021/12/26 01:41:09;;;;;;;5.07;2.70;;;6.20;76.90;;;;;;5157951;27;20038;-52
2021/12/26 01:43:40;;;;;;;3.78;2.78;;;6.20;76.90;;;;;;5157573;27;20052;-52
2021/12/26 01:46:06;;;;;;;2.78;2.38;;;6.20;76.90;;;;;;5158059;27;20089;-48
2021/12/26 01:48:32;;;;;;;3.38;2.30;;;6.20;76.90;;;;;;5159202;27;20078;-46
2021/12/26 01:50:58;;;;;;;3.15;2.03;;;6.20;76.90;;;;;;5157643;27;20130;-49
2021/12/26 01:53:26;;;;;;;4.25;2.75;;;6.20;76.90;;;;;;5157870;27;20039;-51
2021/12/26 01:55:54;;;;;;;3.03;2.30;;;6.20;76.90;;;;;;5157478;27;20046;-50
2021/12/26 01:58:25;;;;;;;2.50;2.30;;;6.20;77.50;;;;;;5158444;27;20037;-47
2021/12/26 02:00:55;;;;;;;3.38;2.30;;;6.20;76.80;;;;;;5157801;27;20035;-50
2021/12/26 02:03:21;;;;;;;3.03;2.33;;;6.20;76.90;;;;;;5157652;27;20034;-51
2021/12/26 02:05:47;;;;;;;3.05;2.38;;;6.20;76.90;;;;;;5157469;27;20039;-52
2021/12/26 02:08:13;;;;;;;2.88;2.50;;;6.20;76.90;;;;;;5158437;27;20087;-50
2021/12/26 02:10:39;;;;;;;2.88;2.25;;;6.20;76.90;;;;;;5157206;27;20409;-50
2021/12/26 02:13:05;;;;;;;3.17;2.20;;;6.20;76.90;;;;;;5157116;27;20039;-48
2021/12/26 02:15:31;;;;;;;3.67;2.38;;;6.20;76.90;;;;;;5156561;27;20051;-53
2021/12/26 02:17:57;;;;;;;2.63;2.30;;;6.20;76.80;;;;;;5157220;27;20043;-50
2021/12/26 02:20:56;;;;;;;2.83;2.00;;;6.20;76.90;;;;;;5158621;27;20031;-52
2021/12/26 02:23:31;;;;;;;2.95;2.33;;;6.20;76.90;;;;;;5157195;27;20130;-52
2021/12/26 02:28:24;;;;;;;3.63;2.30;;;6.20;76.80;;;;;;5157540;27;20517;-51
2021/12/26 02:30:50;;;;;;;2.92;2.00;;;6.10;76.80;;;;;;5157815;27;20043;-49
2021/12/26 02:33:18;;;;;;;2.67;2.47;;;6.10;76.90;;;;;;5157174;27;20046;-50
2021/12/26 02:35:44;;;;;;;3.03;2.25;;;6.10;76.90;;;;;;5156644;27;20035;-52
2021/12/26 02:38:11;;;;;;;2.40;2.20;;;6.10;76.80;;;;;;5156917;27;20058;-49
2021/12/26 02:40:38;;;;;;;2.17;1.92;;;6.10;76.80;;;;;;5157842;27;20039;-50
2021/12/26 02:43:06;;;;;;;2.97;2.28;;;6.10;76.80;;;;;;5158058;27;20039;-48
2021/12/26 02:45:32;;;;;;;3.28;2.00;;;6.10;76.80;;;;;;5157042;27;20397;-51
2021/12/26 02:47:58;;;;;;;2.50;1.92;;;6.10;76.80;;;;;;5137567;27;20046;-49
2021/12/26 02:50:27;;;;;;;2.67;2.00;;;6.10;76.70;;;;;;5156549;27;20112;-48
2021/12/26 02:52:54;;;;;;;2.17;1.98;;;6.10;76.70;;;;;;5157000;27;20435;-51
2021/12/26 02:55:21;;;;;;;3.60;2.25;;;6.10;76.70;;;;;;5156404;27;20087;-53
2021/12/26 02:57:55;;;;;;;4.38;2.45;;;6.10;76.70;;;;;;5156349;27;20439;-51
2021/12/26 03:00:23;;;;;;;2.60;2.20;;;6.10;76.70;;;;;;5156444;27;20035;-48
2021/12/26 03:02:52;;;;;;;2.35;2.00;;;6.10;76.70;;;;;;5157143;27;20123;-50
2021/12/26 03:05:19;;;;;;;3.00;2.28;;;6.10;76.80;;;;;;5156146;27;20409;-50
2021/12/26 03:07:47;;;;;;;2.40;2.17;;;6.10;76.70;;;;;;5155055;27;20062;-52
2021/12/26 03:10:22;;;;;;;2.88;2.10;;;6.10;76.70;;;;;;5156251;27;20037;-49
2021/12/26 03:12:51;;;;;;;3.45;2.13;;;6.10;76.80;;;;;;5157521;27;20038;-50
2021/12/26 03:15:17;;;;;;;2.78;2.25;;;6.10;76.70;;;;;;5137163;27;20067;-51
2021/12/26 03:17:43;;;;;;;2.33;1.85;;;6.10;76.80;;;;;;5137752;27;20340;-46
2021/12/26 03:20:11;;;;;;;2.65;2.00;;;6.10;76.70;;;;;;5155755;27;20043;-52
2021/12/26 03:22:37;;;;;;;2.55;2.10;;;6.10;76.70;;;;;;5157105;27;20042;-51
2021/12/26 03:25:04;;;;;;;3.10;1.85;;;6.10;76.70;;;;;;5136832;27;20402;-51
2021/12/26 03:27:29;;;;;;;2.42;1.98;;;6.10;76.70;;;;;;5156128;27;20038;-52
2021/12/26 03:29:56;;;;;;;2.85;2.13;;;6.10;76.70;;;;;;5155682;27;20052;-49
2021/12/26 03:32:22;;;;;;;3.08;1.90;;;6.00;76.60;;;;;;5137110;27;20043;-52
2021/12/26 03:34:49;;;;;;;2.78;2.00;;;6.10;76.70;;;;;;5156512;27;20095;-50
2021/12/26 03:37:16;;;;;;;2.92;2.15;;;6.10;76.60;;;;;;5155631;27;20435;-49
2021/12/26 03:39:42;;;;;;;2.65;2.17;;;6.10;76.70;;;;;;5155739;27;20049;-49
2021/12/26 03:42:08;;;;;;;2.55;1.98;;;6.10;76.60;;;;;;5155801;27;20130;-51
2021/12/26 03:44:34;;;;;;;2.45;2.17;;;6.10;76.60;;;;;;5156967;27;20054;-52
2021/12/26 03:46:59;;;;;;;2.70;2.30;;;6.10;76.60;;;;;;5154836;27;20034;-51
2021/12/26 03:49:26;;;;;;;3.05;2.17;;;6.00;76.60;;;;;;5155430;27;20114;-49
2021/12/26 03:51:52;;;;;;;3.28;2.10;;;6.00;76.60;;;;;;5154950;27;20047;-50
2021/12/26 03:54:18;;;;;;;2.30;1.88;;;6.10;76.60;;;;;;5156088;27;20098;-51
2021/12/26 03:56:44;;;;;;;2.28;1.90;;;6.00;76.60;;;;;;5136552;27;20047;-50
2021/12/26 03:59:09;;;;;;;2.60;2.15;;;6.10;76.60;;;;;;5155596;27;20038;-50
2021/12/26 04:01:35;;;;;;;2.95;2.42;;;6.10;76.60;;;;;;5155505;27;20053;-50
2021/12/26 04:04:02;;;;;;;2.45;2.10;;;6.00;76.50;;;;;;5155414;27;20038;-52
2021/12/26 04:06:27;;;;;;;2.63;1.90;;;6.00;76.60;;;;;;5156130;27;20038;-51
2021/12/26 04:08:53;;;;;;;2.85;2.00;;;6.10;76.60;;;;;;5154908;27;20126;-51
2021/12/26 04:11:19;;;;;;;2.53;1.85;;;6.00;76.60;;;;;;5155167;27;20047;-48
2021/12/26 04:13:45;;;;;;;2.20;1.90;;;6.00;76.50;;;;;;5154986;27;20567;-52
2021/12/26 04:16:11;;;;;;;2.47;2.03;;;6.00;76.50;;;;;;5156228;27;20043;-49
2021/12/26 04:18:37;;;;;;;2.47;2.05;;;6.00;76.50;;;;;;5154902;27;20038;-51
2021/12/26 04:21:05;;;;;;;2.70;2.10;;;6.00;76.50;;;;;;5154925;27;20047;-50
2021/12/26 04:23:32;;;;;;;2.80;2.08;;;6.00;76.50;;;;;;5154521;27;20434;-51
2021/12/26 04:25:57;;;;;;;2.60;2.08;;;6.00;76.50;;;;;;5136210;27;20482;-50
2021/12/26 04:28:23;;;;;;;3.10;2.10;;;6.00;76.50;;;;;;5155621;27;20078;-52
2021/12/26 04:30:49;;;;;;;1.88;1.70;;;6.00;76.60;;;;;;5154688;27;20035;-48
2021/12/26 04:33:15;;;;;;;2.38;2.00;;;6.00;76.50;;;;;;5155054;27;20049;-51
2021/12/26 04:35:41;;;;;;;2.72;1.90;;;6.00;76.60;;;;;;5154570;27;20457;-49
2021/12/26 04:38:06;;;;;;;2.15;1.85;;;6.00;76.60;;;;;;5162245;27;20038;-52
2021/12/26 04:40:32;;;;;;;3.08;1.90;;;6.00;76.50;;;;;;5175078;27;20042;-50
2021/12/26 04:42:58;;;;;;;2.30;2.00;;;6.00;76.50;;;;;;5175482;27;20049;-49
2021/12/26 04:45:25;;;;;;;2.80;1.85;;;6.00;76.50;;;;;;5175157;27;20038;-50
2021/12/26 04:47:51;;;;;;;2.97;2.00;;;6.00;76.50;;;;;;5173570;27;20098;-49
2021/12/26 04:50:23;;;;;;;2.17;1.80;;;6.00;76.60;;;;;;5156035;27;20042;-52
2021/12/26 04:52:50;;;;;;;2.17;1.90;;;6.00;76.50;;;;;;5175049;27;20045;-51
2021/12/26 04:55:21;;;;;;;2.63;1.70;;;6.00;76.60;;;;;;5155920;27;20549;-49
2021/12/26 04:57:47;;;;;;;1.90;1.70;;;6.00;76.60;;;;;;5174970;27;20042;-51
2021/12/26 05:00:18;;;;;;;2.15;1.83;;;6.00;76.50;;;;;;5172729;27;20038;-51
2021/12/26 05:02:45;;;;;;;2.70;1.80;;;6.00;76.50;;;;;;5174737;27;20082;-50
2021/12/26 05:05:11;;;;;;;2.75;1.90;;;6.00;76.50;;;;;;5174853;27;20041;-46
2021/12/26 05:07:39;;;;;;;2.15;1.95;;;6.00;76.50;;;;;;5156269;27;20050;-50
2021/12/26 05:10:06;;;;;;;2.40;2.20;;;5.90;76.40;;;;;;5172743;27;20512;-52
2021/12/26 05:12:32;;;;;;;2.67;1.80;;;5.90;76.40;;;;;;5174051;27;20216;-52
2021/12/26 05:14:58;;;;;;;2.55;2.00;;;5.90;76.40;;;;;;5174496;27;20145;-52
2021/12/26 05:17:24;;;;;;;3.03;2.00;;;5.90;76.40;;;;;;5175005;27;20038;-52
2021/12/26 05:19:50;;;;;;;2.08;1.85;;;5.90;76.40;;;;;;5173085;27;20470;-49
2021/12/26 05:22:16;;;;;;;1.92;1.63;;;5.90;76.40;;;;;;5175006;27;20071;-50
2021/12/26 05:24:42;;;;;;;2.70;1.77;;;5.90;76.40;;;;;;5174553;27;20046;-51
2021/12/26 05:27:08;;;;;;;2.83;1.90;;;5.90;76.30;;;;;;5174198;27;20097;-51
2021/12/26 05:29:33;;;;;;;2.20;1.80;;;5.90;76.40;;;;;;5174534;27;20041;-52
2021/12/26 05:31:59;;;;;;;3.30;1.95;;;5.90;76.40;;;;;;5172627;27;20034;-51
2021/12/26 05:34:25;;;;;;;3.25;1.85;;;5.90;76.40;;;;;;5174799;27;20053;-52
2021/12/26 05:36:50;;;;;;;3.03;1.88;;;5.90;76.40;;;;;;5174897;27;20035;-51
2021/12/26 05:39:17;;;;;;;3.75;2.10;;;5.90;76.40;;;;;;5174636;27;20385;-52
2021/12/26 05:41:42;;;;;;;2.10;1.83;;;5.90;76.40;;;;;;5172633;27;20030;-48
2021/12/26 05:44:09;;;;;;;2.00;1.80;;;5.90;76.30;;;;;;5173938;27;20038;-50
2021/12/26 05:46:37;;;;;;;2.65;1.95;;;5.90;76.30;;;;;;5174389;27;20566;-51
2021/12/26 05:49:03;;;;;;;1.98;1.63;;;5.90;76.30;;;;;;5174534;27;20041;-52
2021/12/26 05:51:28;;;;;;;2.53;1.90;;;5.90;76.30;;;;;;5172961;27;20042;-48
2021/12/26 05:53:54;;;;;;;3.17;1.90;;;5.80;76.20;;;;;;5174560;27;20039;-51
2021/12/26 05:56:20;;;;;;;3.38;1.83;;;5.90;76.30;;;;;;5163670;27;20039;-48
2021/12/26 05:58:46;;;;;;;3.58;2.25;;;5.90;76.30;;;;;;5153106;27;20031;-50
2021/12/26 06:01:12;;;;;;;2.13;1.65;;;5.90;76.30;;;;;;5134760;27;20085;-51
2021/12/26 06:03:37;;;;;;;2.88;1.80;;;5.90;76.30;;;;;;5135859;27;20046;-51
2021/12/26 06:06:04;;;;;;;3.53;2.17;;;5.90;76.30;;;;;;5153850;27;20077;-50
2021/12/26 06:08:29;;;;;;;2.78;1.83;;;5.90;76.30;;;;;;5153561;27;20035;-52
2021/12/26 06:10:55;;;;;;;1.75;1.63;;;5.90;76.90;;;;;;5155084;27;20047;-50
2021/12/26 06:13:21;;;;;;;2.70;1.90;;;5.90;76.20;;;;;;5158320;27;20042;-50
2021/12/26 06:15:46;;;;;;;2.25;1.90;;;5.80;76.20;;;;;;5156763;27;20086;-51
2021/12/26 06:18:12;;;;;;;2.35;2.00;;;5.90;76.20;;;;;;5157066;27;20455;-46
2021/12/26 06:20:38;;;;;;;2.40;2.05;;;5.80;76.20;;;;;;5157250;27;20047;-48
2021/12/26 06:23:04;;;;;;;2.95;1.90;;;5.80;76.20;;;;;;5157287;27;20087;-51
2021/12/26 06:25:29;;;;;;;2.35;2.00;;;5.80;76.20;;;;;;5158480;27;20081;-49
2021/12/26 06:27:55;;;;;;;2.65;2.17;;;5.80;76.10;;;;;;5156930;27;20030;-51
2021/12/26 06:30:21;;;;;;;2.33;2.00;;;5.80;76.20;;;;;;5156952;27;20491;-49
2021/12/26 06:32:47;;;;;;;1.60;1.50;;;5.80;76.20;;;;;;5156967;27;20078;-51
2021/12/26 06:35:13;;;;;;;2.10;1.60;;;5.80;76.20;;;;;;5158248;27;20034;-48
2021/12/26 06:37:40;;;;;;;2.15;1.60;;;5.80;76.20;;;;;;5157115;27;20083;-50
2021/12/26 06:40:08;;;;;;;2.00;1.80;;;5.80;76.20;;;;;;5157039;27;20392;-50
2021/12/26 06:42:40;;;;;;;2.25;2.00;;;5.80;76.20;;;;;;5157104;27;20051;-51
2021/12/26 06:45:07;;;;;;;2.60;1.92;;;5.80;76.20;;;;;;5157939;27;20035;-49
2021/12/26 06:47:33;;;;;;;2.17;1.85;;;5.80;76.20;;;;;;5156282;27;20035;-50
2021/12/26 06:49:59;;;;;;;2.45;2.00;;;5.80;76.20;;;;;;5156615;27;20434;-48
2021/12/26 06:52:24;;;;;;;2.75;2.03;;;5.80;76.10;;;;;;5156638;27;20532;-50
2021/12/26 06:54:50;;;;;;;2.15;1.90;;;5.80;76.20;;;;;;5156986;27;20475;-48
2021/12/26 06:57:16;;;;;;;2.28;1.95;;;5.80;76.20;;;;;;5157933;27;20070;-47
2021/12/26 06:59:42;;;;;;;2.33;1.90;;;5.80;76.20;;;;;;5156587;27;20031;-52
2021/12/26 07:02:08;;;;;;;2.10;1.60;;;5.80;76.20;;;;;;5137696;27;20059;-49
2021/12/26 07:04:34;;;;;;;1.95;1.67;;;5.80;76.20;;;;;;5155638;27;20129;-48
2021/12/26 07:07:00;;;;;;;2.13;1.80;;;5.80;76.20;;;;;;5157443;27;20126;-52
2021/12/26 07:09:26;;;;;;;2.30;1.95;;;5.80;76.20;;;;;;5156379;27;20039;-51
2021/12/26 07:11:51;;;;;;;2.05;1.73;;;5.80;76.10;;;;;;5156351;27;20039;-51
2021/12/26 07:14:17;;;;;;;2.25;1.85;;;5.70;76.10;;;;;;5156110;27;20046;-49
2021/12/26 07:16:43;;;;;;;2.45;1.98;;;5.70;76.10;;;;;;5157520;27;20042;-48
2021/12/26 07:19:08;;;;;;;2.17;1.90;;;5.80;76.10;;;;;;5155758;27;20430;-51
2021/12/26 07:21:34;;;;;;;2.60;1.95;;;5.70;76.10;;;;;;5155428;27;20062;-50
2021/12/26 07:24:00;;;;;;;2.45;1.92;;;5.80;76.10;;;;;;5155657;27;20467;-52
2021/12/26 07:26:25;;;;;;;3.10;2.13;;;5.70;76.00;;;;;;5137031;27;20053;-50
2021/12/26 07:28:51;;;;;;;2.42;1.90;;;5.70;76.10;;;;;;5167393;27;20099;-52
2021/12/26 07:31:17;;;;;;;2.85;2.10;;;5.80;76.10;;;;;;5176223;27;20413;-48
2021/12/26 07:33:43;;;;;;;3.20;2.13;;;5.70;76.00;;;;;;5175865;27;20049;-51
2021/12/26 07:36:09;;;;;;;2.42;2.22;;;5.70;76.00;;;;;;5156117;27;20130;-49
2021/12/26 07:38:35;;;;;;;2.20;1.95;;;5.70;76.00;;;;;;5168369;27;20042;-46
2021/12/26 07:41:00;;;;;;;3.33;2.50;;;5.70;76.00;;;;;;5155507;27;20035;-47
2021/12/26 07:43:26;;;;;;;2.53;1.90;;;5.70;76.00;;;;;;5155922;27;20043;-49
2021/12/26 07:45:52;;;;;;;4.30;2.00;;;5.70;76.00;;;;;;5155891;27;20039;-51
2021/12/26 07:48:17;;;;;;;2.78;2.20;;;5.70;76.00;;;;;;5155610;27;20042;-46
2021/12/26 07:50:43;;;;;;;2.15;1.90;;;5.70;76.60;;;;;;5156185;27;20035;-48
2021/12/26 07:53:11;;;;;;;2.70;2.13;;;5.70;76.00;;;;;;5155519;27;20034;-51
2021/12/26 07:55:39;;;;;;;3.05;2.13;;;5.80;76.10;;;;;;5155632;27;20126;-51
2021/12/26 07:58:05;;;;;;;2.17;1.98;;;5.70;76.00;;;;;;5155553;27;20098;-49
2021/12/26 08:00:32;;;;;;;2.67;1.90;;;5.70;76.10;;;;;;5156384;27;20101;-50
2021/12/26 08:02:58;;;;;;;2.33;2.10;;;5.70;76.00;;;;;;5136717;27;20053;-50
2021/12/26 08:05:25;;;;;;;2.75;1.98;;;5.70;76.00;;;;;;5155034;27;20401;-48
2021/12/26 08:07:50;;;;;;;2.75;2.25;;;5.70;76.00;;;;;;5154568;27;20171;-49
2021/12/26 08:10:16;;;;;;;3.05;2.38;;;5.70;76.20;;;;;;5159694;27;20478;-46
2021/12/26 08:12:42;;;;;;;3.10;2.03;;;5.70;76.00;;;;;;5146903;27;20041;-49
2021/12/26 08:15:08;;;;;;;3.67;2.20;;;5.70;76.00;;;;;;5172244;27;20400;-50
2021/12/26 08:17:35;;;;;;;2.10;1.67;;;5.70;76.00;;;;;;5166482;27;20050;-50
2021/12/26 08:20:02;;;;;;;2.28;2.08;;;5.70;76.00;;;;;;5163931;27;20041;-47
2021/12/26 08:22:28;;;;;;;3.17;2.35;;;5.70;76.00;;;;;;5146209;27;20034;-49
2021/12/26 08:24:54;;;;;;;3.45;2.30;;;5.70;76.00;;;;;;5164584;27;20106;-46
2021/12/26 08:27:20;;;;;;;2.55;2.00;;;5.70;76.00;;;;;;5164993;27;20062;-48
2021/12/26 08:29:47;;;;;;;2.78;2.00;;;5.70;75.90;;;;;;5172606;27;20557;-49
2021/12/26 08:32:15;;;;;;;2.65;2.03;;;5.70;76.00;;;;;;5164528;27;20085;-50
2021/12/26 08:34:43;;;;;;;2.58;2.30;;;5.70;76.00;;;;;;5154250;27;20107;-51
2021/12/26 08:37:09;;;;;;;2.22;2.00;;;5.70;76.00;;;;;;5135872;27;20074;-49
2021/12/26 08:39:38;;;;;;;2.38;1.80;;;5.70;76.00;;;;;;5153672;27;20095;-49
2021/12/26 08:42:09;;;;;;;2.75;2.20;;;5.70;75.90;;;;;;5155408;27;20038;-52
2021/12/26 08:44:36;;;;;;;2.45;2.22;;;5.70;75.90;;;;;;5154202;27;20034;-49
2021/12/26 08:47:03;;;;;;;2.72;2.22;;;5.70;75.90;;;;;;5154565;27;20058;-53
2021/12/26 08:49:29;;;;;;;3.25;2.58;;;5.70;76.60;;;;;;5154435;27;20050;-51
2021/12/26 08:51:55;;;;;;;2.88;2.28;;;5.70;75.90;;;;;;5154333;27;20043;-50
2021/12/26 08:54:22;;;;;;;3.20;2.20;;;5.70;75.80;;;;;;5154557;27;20118;-54
2021/12/26 08:56:48;;;;;;;2.75;2.38;;;5.70;75.90;;;;;;5153900;27;20053;-52
2021/12/26 08:59:14;;;;;;;3.75;2.40;;;5.70;75.80;;;;;;5153957;27;20162;-52
2021/12/26 09:01:41;;;;;;;3.30;2.55;;;5.70;75.80;;;;;;5153762;27;20049;-47
2021/12/26 09:04:06;;;;;;;2.22;1.95;;;5.70;75.80;;;;;;5162587;27;20034;-47
2021/12/26 09:06:32;;;;;;;2.38;2.13;;;5.70;75.80;;;;;;5165065;27;20061;-46
2021/12/26 09:09:03;;;;;;;3.63;2.40;;;5.70;75.80;;;;;;5140315;27;20041;-50
2021/12/26 09:11:31;;;;;;;2.85;2.30;;;5.70;75.80;;;;;;5154014;27;20053;-51
2021/12/26 09:13:56;;;;;;;3.28;2.50;;;5.60;75.80;;;;;;5163035;27;20050;-50
2021/12/26 09:16:23;;;;;;;3.70;2.80;;;5.70;75.80;;;;;;5161191;27;20054;-47
2021/12/26 09:18:50;;;;;;;3.42;2.38;;;5.70;75.80;;;;;;5160581;27;20145;-47
2021/12/26 09:21:16;;;;;;;2.45;2.25;;;5.70;75.80;;;;;;5162783;27;20469;-45
2021/12/26 09:23:42;;;;;;;2.70;2.40;;;5.70;75.80;;;;;;5164051;27;20089;-47
2021/12/26 09:26:07;;;;;;;3.08;2.53;;;5.60;75.80;;;;;;5161252;27;20070;-48
2021/12/26 09:28:36;;;;;;;3.42;2.38;;;5.60;75.70;;;;;;5162035;27;20039;-49
2021/12/26 09:31:03;;;;;;;2.60;2.40;;;5.60;75.70;;;;;;5163434;27;20396;-49
2021/12/26 09:33:29;;;;;;;3.95;2.55;;;5.60;75.70;;;;;;5163278;27;20042;-48
2021/12/26 09:35:55;;;;;;;2.60;2.40;;;5.60;75.70;;;;;;5159704;27;20084;-48
2021/12/26 09:38:20;;;;;;;3.83;2.42;;;5.60;76.30;;;;;;5158905;27;20042;-46
2021/12/26 09:40:46;;;;;;;2.75;2.45;;;5.60;75.70;;;;;;5153276;27;20125;-49
2021/12/26 09:43:12;;;;;;;2.47;2.10;;;5.60;75.70;;;;;;5153298;27;20042;-45
2021/12/26 09:45:38;;;;;;;2.97;2.33;;;5.60;75.70;;;;;;5163694;27;20031;-45
2021/12/26 09:48:04;;;;;;;3.30;2.42;;;5.60;75.70;;;;;;5166810;27;20035;-46
2021/12/26 09:50:30;;;;;;;3.40;2.40;;;5.60;75.60;;;;;;5144325;27;20097;-48
2021/12/26 09:52:56;;;;;;;3.42;2.47;;;5.60;75.60;;;;;;5163073;27;20035;-48
2021/12/26 09:55:26;;;;;;;3.00;2.45;;;5.60;75.60;;;;;;5143701;27;20064;-45
2021/12/26 09:57:52;;;;;;;3.00;2.30;;;5.60;76.30;;;;;;5167483;27;20042;-48
2021/12/26 10:00:37;;;;;;;2.45;2.25;;;5.60;75.60;;;;;;5166340;27;20506;-47
2021/12/26 10:03:22;;;;;;;3.38;2.60;;;5.60;75.60;;;;;;5166633;27;20122;-52
2021/12/26 10:05:55;;;;;;;3.60;2.33;;;5.60;75.60;;;;;;5171469;27;20046;-50
2021/12/26 10:08:21;;;;;;;3.35;2.60;;;5.60;75.60;;;;;;5163331;27;20038;-51
2021/12/26 10:11:09;;;;;;;3.72;2.40;;;5.60;75.60;;;;;;5156885;27;20441;-52
2021/12/26 10:13:37;;;;;;;3.22;2.70;;;5.60;75.60;;;;;;5157389;27;20038;-46
2021/12/26 10:16:03;;;;;;;4.35;2.60;;;5.60;75.60;;;;;;5157359;27;20066;-51
2021/12/26 10:18:30;;;;;;;3.20;2.83;;;5.60;75.60;;;;;;5164707;27;20042;-50
2021/12/26 10:20:55;;;;;;;3.53;2.72;;;5.60;75.60;;;;;;5178323;27;20102;-48
2021/12/26 10:23:25;;;;;;;3.28;2.90;;;5.60;75.50;;;;;;5178105;27;20038;-51
2021/12/26 10:25:51;;;;;;;2.90;2.45;;;5.60;75.50;;;;;;5177432;27;20046;-53
2021/12/26 10:28:16;;;;;;;3.33;2.78;;;5.60;75.60;;;;;;5176608;27;20038;-47
2021/12/26 10:30:43;;;;;;;4.90;2.88;;;5.60;75.50;;;;;;5177758;27;20038;-51
2021/12/26 10:33:09;;;;;;;2.95;2.47;;;5.60;75.50;;;;;;5176804;27;20078;-47
2021/12/26 10:35:34;;;;;;;3.13;2.72;;;5.60;75.60;;;;;;5143068;27;20092;-52
2021/12/26 10:38:00;;;;;;;3.58;2.70;;;5.60;75.50;;;;;;5155543;27;20041;-51
2021/12/26 10:40:29;;;;;;;2.78;2.38;;;5.60;75.50;;;;;;5158617;27;20054;-49
2021/12/26 10:42:57;;;;;;;2.90;2.33;;;5.60;75.50;;;;;;5156055;27;20075;-47
2021/12/26 10:45:41;;;;;;;3.60;2.60;;;5.60;75.50;;;;;;5156141;27;20369;-45
2021/12/26 10:48:08;;;;;;;3.88;2.83;;;5.60;75.40;;;;;;5146888;27;20042;-46
2021/12/26 10:50:40;;;;;;;3.13;2.80;;;5.60;75.50;;;;;;5138890;27;20054;-47
2021/12/26 10:53:07;;;;;;;3.67;2.47;;;5.60;75.50;;;;;;5160150;27;20099;-46
2021/12/26 10:55:37;;;;;;;3.05;2.75;;;5.60;75.50;;;;;;5159061;27;20106;-46
2021/12/26 10:58:07;;;;;;;2.65;2.40;;;5.60;75.50;;;;;;5163082;27;20039;-49
2021/12/26 11:00:42;;;;;;;3.47;2.80;;;5.60;75.50;;;;;;5156005;27;20583;-47
2021/12/26 11:03:17;;;;;;;3.53;2.67;;;5.60;75.40;;;;;;5139286;27;20078;-46
2021/12/26 11:05:45;;;;;;;3.53;2.63;;;5.60;75.40;;;;;;5155233;27;20035;-49
2021/12/26 11:08:33;;;;;;;3.13;2.67;;;5.60;75.50;;;;;;5164085;27;20038;-46
2021/12/26 11:11:09;;;;;;;3.10;2.58;;;5.60;75.50;;;;;;5160943;27;20393;-46
2021/12/26 11:13:36;;;;;;;2.92;2.63;;;5.60;76.10;;;;;;5166338;27;20109;-50
2021/12/26 11:16:07;;;;;;;3.55;2.72;;;5.60;75.40;;;;;;5164396;27;20827;-48
2021/12/26 11:18:34;;;;;;;3.45;2.83;;;5.60;75.40;;;;;;5159573;27;20035;-50
2021/12/26 11:21:06;;;;;;;4.30;3.10;;;5.60;75.40;;;;;;5149528;27;20055;-50
2021/12/26 11:23:35;;;;;;;2.97;2.55;;;5.60;75.40;;;;;;5143149;27;20027;-48
2021/12/26 11:26:04;;;;;;;3.67;2.30;;;5.60;75.50;;;;;;5166701;27;20035;-46
2021/12/26 11:28:45;;;;;;;3.10;2.60;;;5.60;75.40;;;;;;5166352;27;20467;-53
2021/12/26 11:31:17;;;;;;;3.08;2.78;;;5.60;75.40;;;;;;5163970;27;20474;-48
2021/12/26 11:33:44;;;;;;;3.38;2.70;;;5.60;75.40;;;;;;5164835;27;20125;-50
2021/12/26 11:36:11;;;;;;;3.00;2.40;;;5.60;75.40;;;;;;5165378;27;20441;-48
2021/12/26 11:38:38;;;;;;;3.38;2.60;;;5.60;75.40;;;;;;5165052;27;20049;-46
2021/12/26 11:41:24;;;;;;;3.15;2.65;;;5.60;75.40;;;;;;5163471;27;20038;-46
2021/12/26 11:44:07;;;;;;;;;;;5.60;75.40;;;;;;5142735;27;20089;-47
2021/12/26 11:46:52;;;;;;;3.25;2.70;;;5.50;75.20;;;;;;5153131;27;19986;-48
2021/12/26 11:50:02;;;;;;;3.72;2.67;;;5.60;75.50;;;;;;5161872;27;20051;-51
2021/12/26 11:52:47;;;;;;;3.53;2.78;;;5.60;75.40;;;;;;5172195;27;20451;-44
2021/12/26 11:55:38;;;;;;;3.33;2.70;;;5.60;75.50;;;;;;5164379;27;20035;-46
2021/12/26 11:58:31;;;;;;;3.85;2.70;;;5.60;75.40;;;;;;5158515;27;20423;-47
2021/12/26 12:00:59;;;;;;;3.00;2.70;;;5.60;75.40;;;;;;5162375;27;20504;-48
2021/12/26 12:03:30;;;;;;;3.30;2.65;;;5.60;75.40;;;;;;5162671;27;20053;-46
2021/12/26 12:05:57;;;;;;;3.38;2.78;;;5.60;75.40;;;;;;5151471;27;20049;-46
2021/12/26 12:08:23;;;;;;;3.42;2.67;;;5.60;75.40;;;;;;5157200;27;20110;-51
2021/12/26 12:10:55;;;;;;;3.00;2.58;;;5.60;75.40;;;;;;5168149;27;20179;-48
2021/12/26 12:13:26;;;;;;;3.00;2.60;;;5.60;75.40;;;;;;5146680;27;20046;-46
2021/12/26 12:15:57;;;;;;;3.03;2.60;;;5.60;75.30;;;;;;5135584;27;20506;-45
2021/12/26 12:18:30;;;;;;;2.90;2.60;;;5.60;75.30;;;;;;5141944;27;20131;-45
2021/12/26 12:21:18;;;;;;;3.20;2.90;;;5.60;75.40;;;;;;5161083;27;20049;-46
2021/12/26 12:24:02;;;;;;;3.55;3.13;;;5.60;75.40;;;;;;5160447;27;20034;-45
2021/12/26 12:27:20;;;;;;;2.78;2.40;;;5.60;75.20;;;;;;5159659;27;20040;-47
2021/12/26 12:29:50;;;;;;;3.28;2.70;;;5.60;75.20;;;;;;5065610;28;20055;-45
2021/12/26 12:32:20;;;;;;;3.95;2.72;;;5.60;75.30;;;;;;5049915;28;20052;-46
2021/12/26 12:34:49;;;;;;;3.25;2.83;;;5.60;75.30;;;;;;5068083;28;20041;-45
2021/12/26 12:37:41;;;;;;;3.55;3.10;;;5.60;75.30;;;;;;5067584;28;20032;-47
2021/12/26 12:40:36;;;;;;;3.67;2.70;;;5.60;75.50;;;;;;5067899;28;20555;-45
2021/12/26 12:43:07;;;;;;;3.63;2.60;;;5.60;75.20;;;;;;5066552;28;20045;-47
2021/12/26 12:45:57;;;;;;;3.30;3.00;;;5.60;75.30;;;;;;5069194;28;20141;-46
2021/12/26 12:48:38;;;;;;;3.63;2.92;;;5.60;75.30;;;;;;5051408;28;20053;-46
2021/12/26 12:51:15;;;;;;;3.42;3.10;;;5.60;75.30;;;;;;5066245;28;20048;-49
2021/12/26 12:53:58;;;;;;;3.55;2.92;;;5.60;75.20;;;;;;5065031;28;20050;-44
2021/12/26 12:56:30;;;;;;;3.05;2.67;;;5.60;75.20;;;;;;5067946;28;20033;-49
2021/12/26 12:59:14;;;;;;;3.40;2.85;;;5.60;75.20;;;;;;5068926;28;20052;-45
2021/12/26 13:01:46;;;;;;;3.53;2.70;;;5.60;75.10;;;;;;5066570;28;20052;-48
2021/12/26 13:04:17;;;;;;;3.78;2.90;;;5.60;75.10;;;;;;5071710;27;20151;-48
2021/12/26 13:06:59;;;;;;;3.80;2.70;;;5.60;75.10;;;;;;5164038;27;20378;-47